Time;durP1;ratioP1;P1;durP2;ratioP2;P2;SDS_P1;SDS_P2;PMS_P1;PMS_P2;Temp;Humidity;BMP_temperature;BMP_pressure;BME280_temperature;BME280_humidity;BME280_pressure;Samples;Min_cycle;Max_cycle;Signal;HPM_P1;HPM_P2
2022/03/12 00:00:43;;;;;;;0.40;0.28;;;6.40;89.70;;;;;;5010652;28;20427;-74
2022/03/12 00:03:10;;;;;;;0.40;0.20;;;6.40;88.90;;;;;;5009954;28;20777;-74
2022/03/12 00:05:36;;;;;;;0.60;0.60;;;6.50;88.60;;;;;;5010357;28;20395;-74
2022/03/12 00:08:04;;;;;;;0.40;0.20;;;6.60;88.10;;;;;;5009782;28;20412;-74
2022/03/12 00:10:32;;;;;;;0.40;0.30;;;6.50;89.00;;;;;;5009180;28;21004;-74
2022/03/12 00:12:58;;;;;;;0.40;0.30;;;6.30;90.00;;;;;;5010386;28;20871;-74
2022/03/12 00:15:24;;;;;;;1.00;1.00;;;6.30;90.20;;;;;;5010396;28;20424;-74
2022/03/12 00:17:50;;;;;;;0.40;0.20;;;6.20;90.80;;;;;;5010646;28;20401;-74
2022/03/12 00:20:18;;;;;;;0.40;0.32;;;6.30;90.70;;;;;;5008797;28;20428;-74
2022/03/12 00:22:51;;;;;;;0.40;0.28;;;6.30;90.60;;;;;;5010300;28;20920;-74
2022/03/12 00:25:26;;;;;;;0.80;0.80;;;6.30;90.50;;;;;;5009970;28;20648;-74
2022/03/12 00:27:53;;;;;;;0.40;0.30;;;6.40;90.30;;;;;;5010715;28;20392;-74
2022/03/12 00:30:23;;;;;;;0.77;0.77;;;6.40;90.30;;;;;;5010335;28;20487;-74
2022/03/12 00:32:49;;;;;;;0.50;0.50;;;6.60;89.80;;;;;;5010530;28;20393;-74
2022/03/12 00:35:20;;;;;;;0.40;0.30;;;6.60;89.10;;;;;;5008407;28;20920;-74
2022/03/12 00:37:47;;;;;;;0.50;0.50;;;6.50;89.40;;;;;;5010846;28;20492;-74
2022/03/12 00:40:15;;;;;;;0.40;0.20;;;6.50;88.50;;;;;;5009415;28;20425;-74
2022/03/12 00:42:41;;;;;;;0.80;0.63;;;6.50;88.40;;;;;;5009635;28;20911;-74
2022/03/12 00:45:08;;;;;;;0.40;0.20;;;6.50;89.10;;;;;;5009524;28;20428;-74
2022/03/12 00:47:34;;;;;;;0.40;0.20;;;6.50;88.90;;;;;;5010410;28;20388;-74
2022/03/12 00:50:00;;;;;;;1.30;1.20;;;6.70;88.10;;;;;;5010109;28;20439;-74
2022/03/12 00:52:26;;;;;;;0.85;0.85;;;6.70;88.00;;;;;;5010057;28;20403;-74
2022/03/12 00:54:51;;;;;;;0.90;0.90;;;6.70;87.20;;;;;;5010776;28;20927;-74
2022/03/12 00:57:17;;;;;;;1.10;0.80;;;6.80;86.90;;;;;;5009781;28;20385;-74
2022/03/12 00:59:44;;;;;;;0.40;0.30;;;6.70;87.60;;;;;;5010517;28;20409;-74
2022/03/12 01:02:19;;;;;;;0.40;0.30;;;6.60;88.70;;;;;;5011167;28;20401;-74
2022/03/12 01:04:45;;;;;;;2.40;1.08;;;6.70;88.50;;;;;;5013224;28;20876;-74
2022/03/12 01:07:11;;;;;;;0.40;0.20;;;6.70;89.10;;;;;;5011851;28;20412;-74
2022/03/12 01:09:38;;;;;;;2.70;1.20;;;6.70;88.70;;;;;;5005463;28;20418;-74
2022/03/12 01:12:05;;;;;;;1.00;1.00;;;6.60;89.30;;;;;;5011355;28;20892;-74
2022/03/12 01:14:31;;;;;;;0.90;0.70;;;6.60;88.90;;;;;;5014052;28;20480;-74
2022/03/12 01:17:00;;;;;;;0.40;0.40;;;6.60;89.50;;;;;;5013797;28;20518;-74
2022/03/12 01:19:26;;;;;;;0.40;0.30;;;6.70;89.20;;;;;;5013688;28;20396;-74
2022/03/12 01:21:52;;;;;;;0.50;0.50;;;6.60;90.00;;;;;;5013670;28;20498;-74
2022/03/12 01:24:18;;;;;;;0.50;0.50;;;6.60;89.70;;;;;;5012727;28;20409;-74
2022/03/12 01:26:44;;;;;;;0.60;0.60;;;6.80;89.30;;;;;;5013490;28;20404;-74
2022/03/12 01:29:10;;;;;;;0.70;0.60;;;6.70;89.10;;;;;;5012586;28;20397;-74
2022/03/12 01:31:36;;;;;;;0.43;0.38;;;6.70;89.60;;;;;;5013648;28;20401;-74
2022/03/12 01:34:03;;;;;;;0.80;0.50;;;6.80;90.10;;;;;;5013230;28;20384;-74
2022/03/12 01:36:29;;;;;;;0.80;0.80;;;6.80;89.50;;;;;;5013114;28;20935;-74
2022/03/12 01:38:56;;;;;;;0.40;0.40;;;6.80;89.00;;;;;;4994296;28;20398;-74
2022/03/12 01:41:31;;;;;;;0.40;0.30;;;6.80;88.60;;;;;;5012243;28;21090;-74
2022/03/12 01:43:59;;;;;;;0.40;0.25;;;6.90;88.90;;;;;;5013393;28;20434;-75
2022/03/12 01:46:41;;;;;;;0.40;0.40;;;6.80;89.50;;;;;;5011747;28;20385;-74
2022/03/12 01:49:10;;;;;;;0.40;0.30;;;6.90;88.90;;;;;;5012549;28;20412;-74
2022/03/12 01:51:41;;;;;;;0.40;0.30;;;6.90;89.40;;;;;;5013553;28;20416;-74
2022/03/12 01:54:06;;;;;;;0.43;0.38;;;6.90;88.80;;;;;;5012434;28;20405;-74
2022/03/12 01:56:34;;;;;;;0.80;0.80;;;6.90;89.40;;;;;;5012051;28;20413;-74
2022/03/12 01:59:01;;;;;;;0.60;0.50;;;6.90;90.20;;;;;;5013271;28;20384;-75
2022/03/12 02:01:29;;;;;;;1.20;1.20;;;6.90;90.10;;;;;;5012838;28;20466;-74
2022/03/12 02:04:04;;;;;;;1.10;1.10;;;6.80;90.10;;;;;;5013033;28;20784;-75
2022/03/12 02:06:30;;;;;;;1.40;0.70;;;6.90;89.10;;;;;;5012962;28;20396;-74
2022/03/12 02:08:58;;;;;;;0.60;0.60;;;6.90;90.10;;;;;;5010288;28;20562;-74
2022/03/12 02:11:28;;;;;;;0.80;0.80;;;7.00;89.40;;;;;;5012007;28;21031;-74
2022/03/12 02:13:58;;;;;;;0.60;0.50;;;7.00;89.70;;;;;;5011658;28;20528;-74
2022/03/12 02:16:23;;;;;;;0.93;0.93;;;7.00;89.00;;;;;;5012017;28;20396;-74
2022/03/12 02:18:49;;;;;;;0.40;0.30;;;7.00;89.30;;;;;;5013103;28;20384;-74
2022/03/12 02:21:17;;;;;;;1.60;1.50;;;7.00;89.10;;;;;;5011746;28;20454;-74
2022/03/12 02:23:45;;;;;;;1.60;1.50;;;7.10;89.40;;;;;;5012178;28;20998;-74
2022/03/12 02:26:10;;;;;;;0.60;0.60;;;7.00;90.20;;;;;;5011946;28;20385;-74
2022/03/12 02:28:36;;;;;;;0.60;0.50;;;7.00;90.00;;;;;;5012725;28;20384;-74
2022/03/12 02:31:04;;;;;;;1.50;1.40;;;7.00;90.20;;;;;;5012375;28;20877;-74
2022/03/12 02:33:30;;;;;;;0.60;0.60;;;7.00;90.20;;;;;;5010864;28;20385;-74
2022/03/12 02:35:57;;;;;;;2.20;1.30;;;7.00;90.30;;;;;;5010943;28;20950;-74
2022/03/12 02:38:25;;;;;;;0.40;0.35;;;7.10;90.80;;;;;;5011177;28;21020;-74
2022/03/12 02:40:51;;;;;;;0.70;0.70;;;7.10;90.20;;;;;;5012484;28;20404;-74
2022/03/12 02:43:26;;;;;;;1.30;1.20;;;7.20;89.90;;;;;;5011382;28;20397;-74
2022/03/12 02:46:01;;;;;;;0.40;0.30;;;7.10;90.20;;;;;;5012100;28;20900;-74
2022/03/12 02:48:27;;;;;;;0.60;0.55;;;7.10;90.40;;;;;;5010424;28;21227;-74
2022/03/12 02:50:54;;;;;;;1.50;1.40;;;7.10;90.50;;;;;;5010872;28;20487;-74
2022/03/12 02:53:20;;;;;;;0.40;0.38;;;7.10;90.40;;;;;;5011575;28;20761;-74
2022/03/12 02:55:46;;;;;;;0.40;0.28;;;7.10;90.90;;;;;;5011154;28;20399;-74
2022/03/12 02:58:14;;;;;;;1.00;1.00;;;7.20;90.50;;;;;;5011115;28;20479;-74
2022/03/12 03:00:40;;;;;;;0.40;0.38;;;7.30;90.20;;;;;;5011918;28;20424;-74
2022/03/12 03:03:06;;;;;;;0.50;0.50;;;7.30;90.10;;;;;;5011527;28;20447;-75
2022/03/12 03:05:44;;;;;;;3.00;0.80;;;7.30;90.30;;;;;;5011372;28;20400;-74
2022/03/12 03:08:12;;;;;;;0.40;0.30;;;7.40;89.80;;;;;;5011082;28;20412;-75
2022/03/12 03:10:39;;;;;;;1.02;0.93;;;7.30;90.10;;;;;;5009134;28;20438;-74
2022/03/12 03:13:16;;;;;;;1.20;1.02;;;7.30;90.20;;;;;;5011688;28;20385;-74
2022/03/12 03:15:49;;;;;;;2.20;1.10;;;7.20;90.70;;;;;;5011712;28;20527;-74
2022/03/12 03:18:16;;;;;;;0.40;0.30;;;7.20;91.20;;;;;;5010510;28;20435;-74
2022/03/12 03:20:45;;;;;;;0.40;0.30;;;7.10;91.70;;;;;;5011569;28;20881;-74
2022/03/12 03:23:12;;;;;;;0.40;0.30;;;7.20;91.10;;;;;;5010607;28;20408;-74
2022/03/12 03:25:39;;;;;;;0.40;0.30;;;7.30;90.80;;;;;;5011077;28;20424;-74
2022/03/12 03:28:05;;;;;;;0.40;0.30;;;7.40;90.50;;;;;;5011630;28;20697;-73
2022/03/12 03:30:37;;;;;;;0.40;0.30;;;7.40;90.30;;;;;;5009557;28;20405;-73
2022/03/12 03:33:06;;;;;;;0.40;0.30;;;7.30;90.60;;;;;;5011249;28;20393;-73
2022/03/12 03:35:32;;;;;;;0.40;0.30;;;7.20;90.70;;;;;;5010738;28;20829;-73
2022/03/12 03:37:58;;;;;;;0.40;0.20;;;7.20;91.20;;;;;;5011265;28;20479;-73
2022/03/12 03:40:25;;;;;;;0.40;0.20;;;7.10;91.80;;;;;;5009134;28;20936;-73
2022/03/12 03:42:50;;;;;;;0.60;0.60;;;7.00;92.00;;;;;;5011103;28;20784;-73
2022/03/12 03:45:27;;;;;;;0.50;0.40;;;7.10;92.50;;;;;;5010494;28;20384;-73
2022/03/12 03:47:54;;;;;;;0.40;0.30;;;7.10;92.60;;;;;;5011069;28;20392;-73
2022/03/12 03:50:25;;;;;;;0.40;0.30;;;7.10;92.70;;;;;;5010218;28;20404;-73
2022/03/12 03:52:58;;;;;;;0.40;0.30;;;7.10;92.50;;;;;;5011372;28;20833;-73
2022/03/12 03:55:28;;;;;;;0.50;0.50;;;7.10;92.70;;;;;;5010376;28;20467;-73
2022/03/12 03:57:54;;;;;;;0.50;0.50;;;7.10;92.80;;;;;;5011271;28;20471;-74
2022/03/12 04:00:24;;;;;;;0.80;0.70;;;7.10;93.00;;;;;;5008904;28;20740;-74
2022/03/12 04:03:02;;;;;;;0.40;0.40;;;7.00;93.00;;;;;;5010926;28;20431;-74
2022/03/12 04:05:34;;;;;;;0.80;0.80;;;7.10;93.50;;;;;;5008831;28;20954;-74
2022/03/12 04:08:00;;;;;;;0.40;0.30;;;7.10;93.00;;;;;;5010682;28;20447;-74
2022/03/12 04:10:27;;;;;;;0.40;0.20;;;7.10;93.00;;;;;;5009647;28;20412;-74
2022/03/12 04:12:55;;;;;;;0.50;0.50;;;7.20;93.30;;;;;;5010783;28;20471;-74
2022/03/12 04:15:21;;;;;;;0.40;0.30;;;7.20;93.20;;;;;;5010039;28;20413;-74
2022/03/12 04:17:51;;;;;;;0.50;0.50;;;7.10;93.10;;;;;;5010942;28;20443;-74
2022/03/12 04:20:20;;;;;;;0.50;0.50;;;7.10;93.50;;;;;;5009694;28;20424;-74
2022/03/12 04:22:51;;;;;;;0.90;0.80;;;7.00;94.30;;;;;;5010278;28;20483;-74
2022/03/12 04:25:18;;;;;;;0.40;0.30;;;7.00;95.10;;;;;;5009965;28;20873;-74
2022/03/12 04:27:44;;;;;;;0.40;0.40;;;6.90;95.10;;;;;;5010604;28;20447;-74
2022/03/12 04:30:14;;;;;;;0.70;0.70;;;6.90;95.50;;;;;;5010491;28;20393;-74
2022/03/12 04:32:42;;;;;;;2.13;0.87;;;6.90;95.70;;;;;;5010795;28;20405;-74
2022/03/12 04:35:09;;;;;;;1.20;1.10;;;6.90;95.90;;;;;;5010726;28;20451;-74
2022/03/12 04:37:36;;;;;;;0.52;0.52;;;7.00;96.20;;;;;;5012592;28;20479;-74
2022/03/12 04:40:13;;;;;;;0.40;0.30;;;7.00;95.90;;;;;;5014764;28;20479;-74
2022/03/12 04:42:44;;;;;;;0.40;0.30;;;6.90;96.60;;;;;;5014789;28;20467;-74
2022/03/12 04:45:15;;;;;;;0.88;0.88;;;6.90;96.70;;;;;;5013395;28;20931;-74
2022/03/12 04:47:42;;;;;;;0.40;0.20;;;6.70;97.40;;;;;;5015119;28;20472;-74
2022/03/12 04:50:10;;;;;;;1.90;0.90;;;6.80;97.80;;;;;;5014391;28;20472;-74
2022/03/12 04:52:36;;;;;;;0.40;0.20;;;6.80;98.10;;;;;;5014069;28;20420;-74
2022/03/12 04:55:16;;;;;;;0.60;0.50;;;6.80;98.40;;;;;;5014360;28;20415;-74
2022/03/12 04:57:42;;;;;;;0.40;0.20;;;6.70;99.10;;;;;;5014801;28;20385;-74
2022/03/12 05:00:17;;;;;;;0.40;0.30;;;6.80;99.20;;;;;;5014414;28;20384;-74
2022/03/12 05:02:45;;;;;;;0.40;0.30;;;6.80;98.80;;;;;;5014775;28;20446;-74
2022/03/12 05:05:13;;;;;;;0.50;0.50;;;6.80;98.90;;;;;;5014060;28;20392;-74
2022/03/12 05:07:45;;;;;;;1.10;1.00;;;6.80;98.40;;;;;;5013500;28;20421;-74
2022/03/12 05:10:19;;;;;;;0.40;0.30;;;6.90;98.30;;;;;;5013968;28;20423;-74
2022/03/12 05:12:51;;;;;;;0.40;0.30;;;6.90;98.20;;;;;;5014285;28;20389;-74
2022/03/12 05:15:17;;;;;;;1.30;1.00;;;7.00;98.40;;;;;;5013429;28;20388;-74
2022/03/12 05:17:47;;;;;;;0.55;0.55;;;7.10;97.50;;;;;;5013991;28;20392;-74
2022/03/12 05:20:19;;;;;;;0.60;0.60;;;7.10;97.30;;;;;;5013653;28;20400;-74
2022/03/12 05:22:46;;;;;;;0.40;0.20;;;7.10;97.60;;;;;;5014390;28;20503;-74
2022/03/12 05:25:12;;;;;;;1.40;1.10;;;7.20;97.00;;;;;;5013677;28;20393;-74
2022/03/12 05:27:37;;;;;;;1.00;1.00;;;7.10;97.30;;;;;;5013196;28;20393;-74
2022/03/12 05:30:04;;;;;;;0.40;0.30;;;7.20;97.90;;;;;;5013500;28;20377;-74
2022/03/12 05:32:31;;;;;;;0.40;0.30;;;7.30;97.40;;;;;;5013027;28;20397;-74
2022/03/12 05:34:56;;;;;;;1.15;1.08;;;7.30;98.60;;;;;;5013669;28;20392;-74
2022/03/12 05:37:22;;;;;;;0.40;0.30;;;7.20;99.20;;;;;;5012437;28;20892;-75
2022/03/12 05:39:51;;;;;;;1.10;0.70;;;7.10;99.00;;;;;;5013423;28;20392;-74
2022/03/12 05:42:20;;;;;;;0.40;0.30;;;7.20;99.80;;;;;;5011398;28;20416;-74
2022/03/12 05:44:46;;;;;;;0.40;0.32;;;7.00;99.20;;;;;;5013805;28;20447;-74
2022/03/12 05:47:11;;;;;;;0.50;0.50;;;7.20;99.60;;;;;;5013663;28;20784;-74
2022/03/12 05:49:37;;;;;;;1.50;0.90;;;7.20;99.30;;;;;;5011571;28;20443;-74
2022/03/12 05:52:03;;;;;;;0.40;0.30;;;7.20;99.30;;;;;;5013413;28;20848;-74
2022/03/12 05:54:29;;;;;;;0.40;0.30;;;7.20;99.30;;;;;;5012573;28;20381;-74
2022/03/12 05:56:56;;;;;;;1.50;1.40;;;7.10;99.70;;;;;;5013573;28;20420;-74
2022/03/12 05:59:22;;;;;;;0.40;0.30;;;7.00;99.90;;;;;;5012193;28;20389;-73
2022/03/12 06:01:50;;;;;;;0.90;0.90;;;7.10;99.90;;;;;;5012810;28;20495;-73
2022/03/12 06:04:25;;;;;;;0.40;0.30;;;7.10;99.90;;;;;;5013156;28;20393;-73
2022/03/12 06:06:52;;;;;;;0.60;0.60;;;6.90;99.90;;;;;;5012717;28;20769;-73
2022/03/12 06:09:18;;;;;;;0.40;0.30;;;6.90;99.90;;;;;;5012056;28;20458;-73
2022/03/12 06:11:44;;;;;;;0.40;0.30;;;6.90;99.90;;;;;;5012521;28;20423;-73
2022/03/12 06:14:12;;;;;;;0.40;0.40;;;6.90;99.90;;;;;;5013269;28;20392;-73
2022/03/12 06:16:38;;;;;;;0.40;0.20;;;6.90;99.90;;;;;;5011630;28;20396;-74
2022/03/12 06:19:04;;;;;;;0.40;0.20;;;6.90;99.90;;;;;;5011861;28;20396;-73
2022/03/12 06:21:30;;;;;;;2.30;0.70;;;7.00;99.90;;;;;;5011922;28;20735;-73
2022/03/12 06:23:56;;;;;;;0.60;0.60;;;7.00;99.90;;;;;;5011489;28;20409;-74
2022/03/12 06:26:23;;;;;;;0.40;0.40;;;7.10;99.90;;;;;;5011979;28;20396;-74
2022/03/12 06:28:48;;;;;;;0.60;0.50;;;7.10;99.90;;;;;;5013201;28;20535;-74
2022/03/12 06:31:14;;;;;;;0.63;0.50;;;7.00;99.90;;;;;;5012427;28;20484;-74
2022/03/12 06:33:42;;;;;;;0.40;0.40;;;6.90;99.90;;;;;;5010583;28;20408;-74
2022/03/12 06:36:08;;;;;;;0.85;0.85;;;6.90;99.90;;;;;;5010387;28;20749;-74
2022/03/12 06:38:35;;;;;;;1.10;1.10;;;7.00;99.90;;;;;;5017093;28;20407;-74
2022/03/12 06:41:01;;;;;;;0.70;0.70;;;7.10;99.90;;;;;;5023775;28;20435;-74
2022/03/12 06:43:28;;;;;;;0.60;0.60;;;7.10;99.90;;;;;;5026415;28;20475;-74
2022/03/12 06:45:58;;;;;;;0.40;0.30;;;7.00;99.90;;;;;;5017208;28;20401;-74
2022/03/12 06:48:25;;;;;;;0.40;0.30;;;7.00;99.90;;;;;;5006576;28;20423;-74
2022/03/12 06:50:51;;;;;;;0.40;0.30;;;7.00;99.90;;;;;;5012005;28;20399;-74
2022/03/12 06:53:17;;;;;;;1.00;1.00;;;7.00;99.90;;;;;;5012589;28;20385;-74
2022/03/12 06:55:43;;;;;;;1.20;1.20;;;7.10;99.90;;;;;;5017304;28;20393;-74
2022/03/12 06:58:09;;;;;;;0.40;0.30;;;7.20;99.90;;;;;;5005829;28;20399;-74
2022/03/12 07:00:35;;;;;;;0.63;0.63;;;7.20;99.90;;;;;;5004987;28;20476;-74
2022/03/12 07:03:01;;;;;;;0.40;0.40;;;7.30;99.90;;;;;;5006169;28;20402;-74
2022/03/12 07:05:27;;;;;;;0.50;0.50;;;7.30;99.90;;;;;;5005276;28;20478;-74
2022/03/12 07:07:54;;;;;;;0.40;0.30;;;7.40;99.90;;;;;;5005070;28;20417;-74
2022/03/12 07:10:20;;;;;;;0.90;0.90;;;7.50;99.90;;;;;;5004551;28;20404;-74
2022/03/12 07:12:47;;;;;;;0.90;0.90;;;7.60;99.90;;;;;;5005402;28;20406;-74
2022/03/12 07:15:14;;;;;;;0.40;0.30;;;7.60;99.90;;;;;;5008915;28;20396;-74
2022/03/12 07:17:42;;;;;;;0.50;0.47;;;7.70;99.90;;;;;;5008442;28;20427;-75
2022/03/12 07:20:08;;;;;;;0.40;0.40;;;7.70;99.90;;;;;;5003415;28;20754;-74
2022/03/12 07:22:34;;;;;;;0.40;0.30;;;7.80;99.90;;;;;;5004616;28;20417;-74
2022/03/12 07:25:00;;;;;;;0.40;0.40;;;7.90;99.90;;;;;;5002479;28;20403;-74
2022/03/12 07:27:26;;;;;;;0.80;0.80;;;8.10;99.60;;;;;;5003519;28;20394;-74
2022/03/12 07:29:52;;;;;;;0.40;0.30;;;8.10;99.20;;;;;;5005506;28;20396;-75
2022/03/12 07:32:19;;;;;;;0.80;0.80;;;8.20;99.10;;;;;;5004428;28;20404;-75
2022/03/12 07:34:45;;;;;;;0.45;0.22;;;8.30;98.90;;;;;;5002509;28;20405;-75
2022/03/12 07:37:11;;;;;;;0.40;0.30;;;8.50;98.60;;;;;;5004644;28;20479;-74
2022/03/12 07:39:41;;;;;;;0.77;0.77;;;8.50;98.50;;;;;;5000772;28;20410;-75
2022/03/12 07:42:07;;;;;;;0.40;0.30;;;8.30;98.50;;;;;;4997623;28;20418;-74
2022/03/12 07:44:33;;;;;;;0.50;0.50;;;8.50;98.30;;;;;;4999107;28;20410;-75
2022/03/12 07:46:59;;;;;;;1.40;0.70;;;8.50;98.40;;;;;;5002738;28;20753;-74
2022/03/12 07:49:26;;;;;;;1.40;1.30;;;8.50;98.70;;;;;;5003463;28;20417;-73
2022/03/12 07:51:52;;;;;;;0.40;0.28;;;8.60;98.00;;;;;;4998522;28;20414;-74
2022/03/12 07:54:18;;;;;;;0.40;0.20;;;8.60;98.40;;;;;;4988555;28;20979;-74
2022/03/12 07:56:44;;;;;;;0.40;0.20;;;8.60;98.80;;;;;;5003058;28;20488;-74
2022/03/12 07:59:11;;;;;;;1.50;0.80;;;8.70;98.80;;;;;;5001967;28;20759;-75
2022/03/12 08:01:38;;;;;;;0.70;0.70;;;8.80;98.80;;;;;;5001990;28;20418;-74
2022/03/12 08:04:05;;;;;;;0.40;0.40;;;9.00;98.20;;;;;;5004626;28;20405;-74
2022/03/12 08:06:31;;;;;;;0.40;0.30;;;9.10;97.70;;;;;;5002732;28;20377;-74
2022/03/12 08:08:57;;;;;;;0.60;0.60;;;9.20;98.20;;;;;;5003227;28;20507;-74
2022/03/12 08:11:31;;;;;;;0.50;0.50;;;9.30;97.70;;;;;;5000719;28;20408;-75
2022/03/12 08:14:02;;;;;;;0.40;0.20;;;9.50;96.90;;;;;;4999350;28;20958;-74
2022/03/12 08:16:33;;;;;;;0.40;0.30;;;9.60;96.90;;;;;;4999605;28;20395;-74
2022/03/12 08:19:01;;;;;;;0.40;0.32;;;9.60;96.40;;;;;;4998214;28;20441;-74
2022/03/12 08:21:27;;;;;;;0.50;0.50;;;9.70;96.60;;;;;;5003307;28;20903;-74
2022/03/12 08:23:52;;;;;;;1.00;0.60;;;9.90;96.40;;;;;;5003561;28;20472;-74
2022/03/12 08:26:19;;;;;;;0.60;0.60;;;10.00;95.50;;;;;;5010157;28;20401;-74
2022/03/12 08:28:45;;;;;;;0.40;0.30;;;10.10;95.30;;;;;;5009135;28;20400;-75
2022/03/12 08:31:12;;;;;;;0.40;0.30;;;10.10;95.20;;;;;;5003279;28;20456;-74
2022/03/12 08:33:37;;;;;;;0.90;0.70;;;10.30;94.90;;;;;;5000344;28;20393;-75
2022/03/12 08:36:06;;;;;;;0.40;0.40;;;10.60;94.00;;;;;;4998960;28;20620;-74
2022/03/12 08:38:36;;;;;;;0.40;0.30;;;10.60;93.40;;;;;;5000244;28;20420;-74
2022/03/12 08:41:07;;;;;;;0.40;0.20;;;10.70;92.50;;;;;;4998531;28;20550;-74
2022/03/12 08:43:35;;;;;;;0.80;0.60;;;11.10;92.10;;;;;;5004269;28;20425;-74
2022/03/12 08:46:01;;;;;;;0.40;0.30;;;11.20;91.60;;;;;;4998367;28;20439;-74
2022/03/12 08:48:27;;;;;;;1.00;0.60;;;11.20;91.20;;;;;;4998903;28;20406;-75
2022/03/12 08:50:53;;;;;;;0.40;0.40;;;11.40;90.50;;;;;;5000997;28;20747;-74
2022/03/12 08:53:21;;;;;;;1.30;1.20;;;11.70;89.30;;;;;;5001484;28;20718;-75
2022/03/12 08:55:47;;;;;;;0.50;0.50;;;12.00;87.30;;;;;;5001370;28;20407;-74
2022/03/12 08:58:13;;;;;;;0.43;0.40;;;12.10;85.60;;;;;;5003262;28;20418;-75
2022/03/12 09:00:39;;;;;;;0.40;0.20;;;12.20;85.70;;;;;;5001223;28;20403;-74
2022/03/12 09:03:06;;;;;;;0.50;0.40;;;12.30;85.70;;;;;;5004250;28;20907;-73
2022/03/12 09:05:32;;;;;;;0.60;0.60;;;12.40;83.20;;;;;;5000525;28;20469;-74
2022/03/12 09:07:58;;;;;;;0.40;0.20;;;12.50;83.20;;;;;;5001017;28;20410;-74
2022/03/12 09:10:24;;;;;;;0.40;0.30;;;12.80;81.70;;;;;;4998493;28;20409;-73
2022/03/12 09:12:50;;;;;;;0.50;0.47;;;12.80;81.60;;;;;;4997560;28;20902;-73
2022/03/12 09:15:21;;;;;;;0.40;0.20;;;12.90;81.60;;;;;;5001742;28;20399;-74
2022/03/12 09:17:47;;;;;;;0.40;0.30;;;13.00;80.90;;;;;;5000587;28;20395;-74
2022/03/12 09:20:14;;;;;;;0.40;0.40;;;13.30;80.30;;;;;;5000920;28;20401;-74
2022/03/12 09:22:40;;;;;;;0.40;0.20;;;13.10;80.00;;;;;;5001602;28;20489;-74
2022/03/12 09:25:11;;;;;;;0.40;0.30;;;13.40;79.50;;;;;;5001180;28;20477;-74
2022/03/12 09:27:37;;;;;;;0.80;0.80;;;13.40;79.40;;;;;;5008986;28;20399;-75
2022/03/12 09:30:04;;;;;;;0.90;0.90;;;13.50;78.20;;;;;;5004706;28;20401;-75
2022/03/12 09:32:29;;;;;;;0.80;0.80;;;13.60;78.50;;;;;;5000962;28;20783;-74
2022/03/12 09:34:55;;;;;;;1.20;1.20;;;13.60;77.80;;;;;;5000843;28;20493;-73
2022/03/12 09:37:21;;;;;;;0.50;0.50;;;13.90;77.20;;;;;;5005027;28;20743;-73
2022/03/12 09:39:47;;;;;;;0.40;0.30;;;14.00;76.80;;;;;;5007008;28;20884;-73
2022/03/12 09:42:13;;;;;;;1.30;1.20;;;13.80;76.80;;;;;;5002391;28;20467;-74
2022/03/12 09:44:39;;;;;;;0.40;0.30;;;14.10;76.10;;;;;;4996451;28;20424;-74
2022/03/12 09:47:06;;;;;;;1.00;1.00;;;13.70;76.50;;;;;;5000225;28;20458;-73
2022/03/12 09:49:35;;;;;;;1.10;1.10;;;13.60;76.60;;;;;;5001806;28;20420;-73
2022/03/12 09:52:01;;;;;;;0.40;0.20;;;13.20;78.10;;;;;;4999822;28;20409;-74
2022/03/12 09:54:29;;;;;;;0.80;0.80;;;13.20;78.40;;;;;;4998855;28;20461;-74
2022/03/12 09:56:58;;;;;;;0.80;0.60;;;13.40;78.00;;;;;;5003464;28;20748;-74
2022/03/12 09:59:25;;;;;;;0.50;0.50;;;13.40;77.60;;;;;;5006280;28;20729;-74
2022/03/12 10:01:53;;;;;;;1.40;1.30;;;13.40;77.00;;;;;;5000619;28;20418;-74
2022/03/12 10:04:19;;;;;;;0.40;0.30;;;13.40;77.80;;;;;;5002932;28;20917;-75
2022/03/12 10:06:45;;;;;;;0.40;0.30;;;13.50;76.30;;;;;;5000725;28;20402;-75
2022/03/12 10:09:10;;;;;;;0.90;0.90;;;13.60;76.50;;;;;;4999439;28;20418;-74
2022/03/12 10:11:36;;;;;;;0.70;0.70;;;13.40;76.50;;;;;;4997988;28;20488;-74
2022/03/12 10:14:02;;;;;;;0.40;0.20;;;13.20;76.90;;;;;;5000770;28;20543;-74
2022/03/12 10:16:29;;;;;;;0.40;0.20;;;13.40;77.50;;;;;;5001055;28;20482;-73
2022/03/12 10:18:56;;;;;;;0.40;0.30;;;13.30;77.50;;;;;;5003474;28;20465;-72
2022/03/12 10:21:23;;;;;;;1.20;1.10;;;13.40;77.00;;;;;;5005428;28;20492;-73
2022/03/12 10:23:49;;;;;;;0.40;0.30;;;13.20;76.60;;;;;;5003553;28;20467;-73
2022/03/12 10:26:15;;;;;;;1.30;0.70;;;13.50;76.90;;;;;;5004910;28;20527;-73
2022/03/12 10:28:41;;;;;;;1.40;1.20;;;13.50;76.10;;;;;;5000359;28;20420;-73
2022/03/12 10:31:09;;;;;;;0.40;0.40;;;13.30;76.50;;;;;;5002472;28;20401;-74
2022/03/12 10:33:36;;;;;;;0.40;0.30;;;13.40;75.80;;;;;;4999175;28;20390;-75
2022/03/12 10:36:16;;;;;;;1.90;0.80;;;13.60;75.90;;;;;;5003739;28;20915;-74
2022/03/12 10:38:51;;;;;;;0.50;0.50;;;13.80;75.60;;;;;;5002261;28;20845;-73
2022/03/12 10:41:17;;;;;;;0.80;0.80;;;13.70;76.10;;;;;;4999969;28;20422;-73
2022/03/12 10:43:43;;;;;;;0.40;0.20;;;13.90;75.20;;;;;;5000864;28;20717;-74
2022/03/12 10:46:10;;;;;;;1.00;0.90;;;13.90;75.00;;;;;;5004797;28;20905;-73
2022/03/12 10:48:39;;;;;;;0.80;0.80;;;13.90;73.20;;;;;;5003167;28;20861;-73
2022/03/12 10:51:04;;;;;;;0.40;0.30;;;13.80;74.00;;;;;;5003084;28;20555;-73
2022/03/12 10:53:31;;;;;;;0.87;0.87;;;13.90;73.90;;;;;;5002151;28;20514;-73
2022/03/12 10:55:57;;;;;;;0.40;0.30;;;14.00;73.40;;;;;;5003818;28;20383;-75
2022/03/12 10:58:22;;;;;;;0.50;0.50;;;13.80;73.80;;;;;;5004756;28;20403;-74
2022/03/12 11:00:54;;;;;;;0.50;0.40;;;13.90;73.20;;;;;;5003080;28;20411;-74
2022/03/12 11:03:22;;;;;;;0.80;0.80;;;14.00;72.80;;;;;;5003782;28;20962;-74
2022/03/12 11:05:51;;;;;;;0.40;0.30;;;14.00;72.60;;;;;;5004732;28;20394;-77
2022/03/12 11:08:23;;;;;;;0.40;0.40;;;14.30;73.10;;;;;;5006671;28;20417;-74
2022/03/12 11:11:00;;;;;;;0.40;0.20;;;14.10;71.30;;;;;;5005727;28;20408;-73
2022/03/12 11:13:43;;;;;;;0.40;0.40;;;14.10;73.00;;;;;;5001112;28;20390;-73
2022/03/12 11:16:32;;;;;;;1.10;1.00;;;13.80;72.40;;;;;;4998835;28;20396;-74
2022/03/12 11:19:07;;;;;;;0.40;0.22;;;14.00;73.30;;;;;;5002859;28;20744;-74
2022/03/12 11:21:42;;;;;;;0.40;0.30;;;13.90;73.40;;;;;;5002405;28;20420;-74
2022/03/12 11:24:22;;;;;;;0.60;0.60;;;14.20;72.70;;;;;;5007406;28;20404;-74
2022/03/12 11:27:03;;;;;;;0.40;0.40;;;14.20;73.30;;;;;;5006935;28;20745;-75
2022/03/12 11:29:30;;;;;;;0.50;0.50;;;14.50;72.50;;;;;;5002075;28;20413;-74
2022/03/12 11:32:05;;;;;;;0.40;0.30;;;14.70;71.80;;;;;;5001848;28;20424;-75
2022/03/12 11:34:34;;;;;;;0.40;0.30;;;14.70;70.40;;;;;;5000190;28;20419;-75
2022/03/12 11:37:06;;;;;;;0.40;0.30;;;14.70;71.40;;;;;;5007726;28;20437;-75
2022/03/12 11:39:42;;;;;;;0.70;0.60;;;14.70;69.20;;;;;;4999174;28;20429;-75
2022/03/12 11:42:18;;;;;;;0.40;0.30;;;15.90;67.60;;;;;;5002525;28;20412;-74
2022/03/12 11:44:51;;;;;;;0.40;0.30;;;15.60;67.50;;;;;;5001197;28;20394;-73
2022/03/12 11:47:20;;;;;;;0.40;0.20;;;16.10;67.20;;;;;;4999412;28;20389;-73
2022/03/12 11:49:47;;;;;;;0.60;0.60;;;16.40;65.80;;;;;;4999217;28;20433;-73
2022/03/12 11:52:16;;;;;;;1.30;0.60;;;16.50;64.20;;;;;;5000882;28;20393;-73
2022/03/12 11:54:43;;;;;;;0.40;0.30;;;16.40;64.40;;;;;;5012315;28;20979;-73
2022/03/12 11:57:11;;;;;;;0.70;0.60;;;16.70;63.70;;;;;;5011363;28;20377;-73
2022/03/12 11:59:38;;;;;;;0.40;0.30;;;16.80;63.60;;;;;;5010607;28;20434;-73
2022/03/12 12:02:22;;;;;;;2.20;1.10;;;16.60;64.60;;;;;;5011214;28;20877;-73
2022/03/12 12:04:51;;;;;;;0.70;0.70;;;16.80;63.00;;;;;;5010655;28;20392;-74
2022/03/12 12:07:17;;;;;;;0.40;0.30;;;16.40;64.00;;;;;;5004497;28;20925;-72
2022/03/12 12:09:45;;;;;;;0.40;0.30;;;16.60;65.10;;;;;;5003689;28;20487;-74
2022/03/12 12:12:13;;;;;;;0.40;0.30;;;17.70;62.50;;;;;;5011444;28;20483;-73
2022/03/12 12:14:43;;;;;;;0.70;0.70;;;18.10;59.90;;;;;;5017014;28;20749;-73
2022/03/12 12:17:10;;;;;;;0.40;0.20;;;17.10;59.00;;;;;;5009858;28;20869;-73
2022/03/12 12:19:37;;;;;;;0.50;0.50;;;17.60;59.60;;;;;;5008751;28;20397;-73
2022/03/12 12:22:04;;;;;;;0.40;0.20;;;17.80;60.00;;;;;;5005575;28;20431;-73
2022/03/12 12:24:36;;;;;;;0.40;0.30;;;18.10;59.50;;;;;;5004622;28;20455;-73
2022/03/12 12:27:07;;;;;;;0.60;0.60;;;17.70;58.20;;;;;;5007172;28;20447;-73
2022/03/12 12:29:48;;;;;;;0.40;0.30;;;17.90;58.40;;;;;;5009960;28;20397;-74
2022/03/12 12:32:19;;;;;;;0.40;0.30;;;18.40;58.90;;;;;;5009260;28;20917;-73
2022/03/12 12:35:04;;;;;;;0.40;0.30;;;16.90;58.90;;;;;;5001275;28;20790;-73
2022/03/12 12:37:51;;;;;;;0.60;0.50;;;16.90;61.30;;;;;;4990560;28;20967;-74
2022/03/12 12:40:18;;;;;;;1.70;1.50;;;16.90;62.50;;;;;;4990868;28;20398;-74
2022/03/12 12:42:45;;;;;;;1.20;1.02;;;17.10;63.60;;;;;;4990573;28;20410;-73
2022/03/12 12:45:15;;;;;;;0.40;0.30;;;17.70;62.30;;;;;;4991234;28;20390;-73
2022/03/12 12:47:41;;;;;;;0.50;0.50;;;18.50;61.70;;;;;;4989472;28;20452;-73
2022/03/12 12:50:19;;;;;;;2.20;1.30;;;19.30;57.40;;;;;;5025306;28;20383;-74
2022/03/12 12:53:13;;;;;;;0.60;0.50;;;18.50;57.90;;;;;;5030072;28;20430;-73
2022/03/12 12:55:40;;;;;;;0.57;0.50;;;18.70;57.90;;;;;;5029775;28;20910;-73
2022/03/12 12:58:07;;;;;;;0.68;0.68;;;18.60;57.80;;;;;;5032259;28;20413;-74